sensor_id;sensor_type;location;lat;lon;timestamp;temperature;humidity
51619;DHT22;38518;53.164;5.430;2022-12-20T00:00:49;7.60;99.90
51619;DHT22;38518;53.164;5.430;2022-12-20T00:03:16;8.00;99.90
51619;DHT22;38518;53.164;5.430;2022-12-20T00:05:42;7.70;99.90
51619;DHT22;38518;53.164;5.430;2022-12-20T00:08:09;7.50;99.90
51619;DHT22;38518;53.164;5.430;2022-12-20T00:10:36;6.30;99.90
51619;DHT22;38518;53.164;5.430;2022-12-20T00:13:02;8.80;99.90
51619;DHT22;38518;53.164;5.430;2022-12-20T00:15:28;7.80;99.90
51619;DHT22;38518;53.164;5.430;2022-12-20T00:17:54;8.30;99.90
51619;DHT22;38518;53.164;5.430;2022-12-20T00:20:19;7.50;99.90
51619;DHT22;38518;53.164;5.430;2022-12-20T00:22:46;7.80;99.90
51619;DHT22;38518;53.164;5.430;2022-12-20T00:25:11;7.70;99.90
51619;DHT22;38518;53.164;5.430;2022-12-20T00:27:37;6.20;99.90
51619;DHT22;38518;53.164;5.430;2022-12-20T00:30:03;7.60;99.90
51619;DHT22;38518;53.164;5.430;2022-12-20T00:32:30;7.80;99.90
51619;DHT22;38518;53.164;5.430;2022-12-20T00:34:56;7.70;99.90
51619;DHT22;38518;53.164;5.430;2022-12-20T00:37:22;7.70;99.90
51619;DHT22;38518;53.164;5.430;2022-12-20T00:39:48;8.60;99.90
51619;DHT22;38518;53.164;5.430;2022-12-20T00:42:14;8.30;99.90
51619;DHT22;38518;53.164;5.430;2022-12-20T00:44:40;7.70;99.90
51619;DHT22;38518;53.164;5.430;2022-12-20T00:47:06;8.00;99.90
51619;DHT22;38518;53.164;5.430;2022-12-20T00:49:32;7.70;99.90
51619;DHT22;38518;53.164;5.430;2022-12-20T00:51:58;7.80;99.90
51619;DHT22;38518;53.164;5.430;2022-12-20T00:54:23;7.70;99.90
51619;DHT22;38518;53.164;5.430;2022-12-20T00:56:49;7.70;99.90
51619;DHT22;38518;53.164;5.430;2022-12-20T00:59:15;9.10;99.90
51619;DHT22;38518;53.164;5.430;2022-12-20T01:01:41;8.00;98.00
51619;DHT22;38518;53.164;5.430;2022-12-20T01:04:07;8.60;99.90
51619;DHT22;38518;53.164;5.430;2022-12-20T01:06:33;8.10;96.20
51619;DHT22;38518;53.164;5.430;2022-12-20T01:08:59;8.00;99.90
51619;DHT22;38518;53.164;5.430;2022-12-20T01:11:28;7.50;99.40
51619;DHT22;38518;53.164;5.430;2022-12-20T01:13:56;8.10;91.90
51619;DHT22;38518;53.164;5.430;2022-12-20T01:16:25;7.50;89.10
51619;DHT22;38518;53.164;5.430;2022-12-20T01:18:51;7.70;75.90
51619;DHT22;38518;53.164;5.430;2022-12-20T01:21:19;7.50;96.80
51619;DHT22;38518;53.164;5.430;2022-12-20T01:23:46;6.90;92.10
51619;DHT22;38518;53.164;5.430;2022-12-20T01:26:16;7.90;87.30
51619;DHT22;38518;53.164;5.430;2022-12-20T01:28:44;7.40;85.20
51619;DHT22;38518;53.164;5.430;2022-12-20T01:31:13;7.70;83.60
51619;DHT22;38518;53.164;5.430;2022-12-20T01:33:41;7.70;93.10
51619;DHT22;38518;53.164;5.430;2022-12-20T01:36:12;6.40;98.70
51619;DHT22;38518;53.164;5.430;2022-12-20T01:38:38;7.30;99.90
51619;DHT22;38518;53.164;5.430;2022-12-20T01:41:05;7.50;99.90
51619;DHT22;38518;53.164;5.430;2022-12-20T01:44:01;7.30;98.30
51619;DHT22;38518;53.164;5.430;2022-12-20T01:46:28;7.20;99.90
51619;DHT22;38518;53.164;5.430;2022-12-20T01:49:10;7.30;57.70
51619;DHT22;38518;53.164;5.430;2022-12-20T01:51:44;7.40;48.90
51619;DHT22;38518;53.164;5.430;2022-12-20T01:54:33;8.50;87.30
51619;DHT22;38518;53.164;5.430;2022-12-20T01:57:03;7.40;93.20
51619;DHT22;38518;53.164;5.430;2022-12-20T01:59:31;7.30;98.90
51619;DHT22;38518;53.164;5.430;2022-12-20T02:02:02;7.30;99.90
51619;DHT22;38518;53.164;5.430;2022-12-20T02:04:29;7.30;99.90
51619;DHT22;38518;53.164;5.430;2022-12-20T02:06:55;6.90;99.90
51619;DHT22;38518;53.164;5.430;2022-12-20T02:09:22;7.30;99.90
51619;DHT22;38518;53.164;5.430;2022-12-20T02:31:28;7.00;1.00
51619;DHT22;38518;53.164;5.430;2022-12-20T02:33:57;7.00;1.00
51619;DHT22;38518;53.164;5.430;2022-12-20T02:36:24;6.90;1.00
51619;DHT22;38518;53.164;5.430;2022-12-20T02:38:50;6.90;1.00
51619;DHT22;38518;53.164;5.430;2022-12-20T02:43:50;7.20;1.00
51619;DHT22;38518;53.164;5.430;2022-12-20T02:46:37;6.90;1.00
51619;DHT22;38518;53.164;5.430;2022-12-20T02:49:08;6.80;1.00
51619;DHT22;38518;53.164;5.430;2022-12-20T02:51:36;6.80;1.00
51619;DHT22;38518;53.164;5.430;2022-12-20T02:54:03;6.90;11.50
51619;DHT22;38518;53.164;5.430;2022-12-20T02:56:40;7.00;18.10
51619;DHT22;38518;53.164;5.430;2022-12-20T02:59:20;6.80;51.40
51619;DHT22;38518;53.164;5.430;2022-12-20T03:01:50;6.90;95.60
51619;DHT22;38518;53.164;5.430;2022-12-20T03:04:18;6.90;99.90
51619;DHT22;38518;53.164;5.430;2022-12-20T03:06:58;6.60;99.90
51619;DHT22;38518;53.164;5.430;2022-12-20T03:09:25;6.90;99.90
51619;DHT22;38518;53.164;5.430;2022-12-20T03:11:51;7.00;99.90
51619;DHT22;38518;53.164;5.430;2022-12-20T03:14:18;6.90;99.90
51619;DHT22;38518;53.164;5.430;2022-12-20T03:16:44;7.10;99.90
51619;DHT22;38518;53.164;5.430;2022-12-20T03:19:10;7.40;99.90
51619;DHT22;38518;53.164;5.430;2022-12-20T03:21:35;7.00;99.90
51619;DHT22;38518;53.164;5.430;2022-12-20T03:24:01;8.10;99.90
51619;DHT22;38518;53.164;5.430;2022-12-20T03:26:29;7.40;99.90
51619;DHT22;38518;53.164;5.430;2022-12-20T03:28:55;8.30;99.90
51619;DHT22;38518;53.164;5.430;2022-12-20T03:31:21;7.10;99.90
51619;DHT22;38518;53.164;5.430;2022-12-20T03:33:47;7.10;99.90
51619;DHT22;38518;53.164;5.430;2022-12-20T03:36:13;7.40;99.90
51619;DHT22;38518;53.164;5.430;2022-12-20T03:38:39;7.10;99.90
51619;DHT22;38518;53.164;5.430;2022-12-20T03:41:05;7.20;99.90
51619;DHT22;38518;53.164;5.430;2022-12-20T03:43:31;7.10;99.90
51619;DHT22;38518;53.164;5.430;2022-12-20T03:45:57;7.20;99.90
51619;DHT22;38518;53.164;5.430;2022-12-20T03:48:22;6.90;99.90
51619;DHT22;38518;53.164;5.430;2022-12-20T03:50:48;6.30;99.90
51619;DHT22;38518;53.164;5.430;2022-12-20T03:53:14;7.30;1.00
51619;DHT22;38518;53.164;5.430;2022-12-20T03:55:39;7.40;1.00
51619;DHT22;38518;53.164;5.430;2022-12-20T03:58:05;8.30;1.00
51619;DHT22;38518;53.164;5.430;2022-12-20T04:00:31;7.80;1.00
51619;DHT22;38518;53.164;5.430;2022-12-20T04:02:57;7.50;1.00
51619;DHT22;38518;53.164;5.430;2022-12-20T04:05:23;7.40;1.00
51619;DHT22;38518;53.164;5.430;2022-12-20T04:07:49;7.90;1.00
51619;DHT22;38518;53.164;5.430;2022-12-20T04:10:15;7.40;1.00
51619;DHT22;38518;53.164;5.430;2022-12-20T04:12:41;7.60;1.00
51619;DHT22;38518;53.164;5.430;2022-12-20T04:15:07;7.60;1.00
51619;DHT22;38518;53.164;5.430;2022-12-20T04:17:33;7.60;1.00
51619;DHT22;38518;53.164;5.430;2022-12-20T04:19:58;7.60;1.00
51619;DHT22;38518;53.164;5.430;2022-12-20T04:22:46;7.70;1.00
51619;DHT22;38518;53.164;5.430;2022-12-20T04:25:13;7.70;1.00
51619;DHT22;38518;53.164;5.430;2022-12-20T04:27:39;7.70;1.00
51619;DHT22;38518;53.164;5.430;2022-12-20T04:30:05;6.10;1.00
51619;DHT22;38518;53.164;5.430;2022-12-20T04:32:31;7.70;1.00
51619;DHT22;38518;53.164;5.430;2022-12-20T04:34:57;7.60;1.00
51619;DHT22;38518;53.164;5.430;2022-12-20T04:37:22;7.80;1.00
51619;DHT22;38518;53.164;5.430;2022-12-20T04:39:48;7.80;1.00
51619;DHT22;38518;53.164;5.430;2022-12-20T04:42:14;7.90;1.00
51619;DHT22;38518;53.164;5.430;2022-12-20T04:44:40;7.70;1.00
51619;DHT22;38518;53.164;5.430;2022-12-20T04:47:05;8.60;99.90
51619;DHT22;38518;53.164;5.430;2022-12-20T04:49:31;7.80;99.90
51619;DHT22;38518;53.164;5.430;2022-12-20T04:51:57;7.80;99.90
51619;DHT22;38518;53.164;5.430;2022-12-20T04:54:42;7.70;99.90
51619;DHT22;38518;53.164;5.430;2022-12-20T04:57:08;7.70;99.90
51619;DHT22;38518;53.164;5.430;2022-12-20T04:59:34;7.70;99.90
51619;DHT22;38518;53.164;5.430;2022-12-20T05:02:00;7.70;99.90
51619;DHT22;38518;53.164;5.430;2022-12-20T05:04:26;7.70;99.90
51619;DHT22;38518;53.164;5.430;2022-12-20T05:06:52;7.70;99.90
51619;DHT22;38518;53.164;5.430;2022-12-20T05:09:18;7.60;99.90
51619;DHT22;38518;53.164;5.430;2022-12-20T05:11:43;7.70;99.90
51619;DHT22;38518;53.164;5.430;2022-12-20T05:14:09;7.70;99.90
51619;DHT22;38518;53.164;5.430;2022-12-20T05:16:35;8.50;99.90
51619;DHT22;38518;53.164;5.430;2022-12-20T05:19:02;7.70;99.90
51619;DHT22;38518;53.164;5.430;2022-12-20T05:21:29;7.80;99.90
51619;DHT22;38518;53.164;5.430;2022-12-20T05:24:14;7.50;99.90
51619;DHT22;38518;53.164;5.430;2022-12-20T05:26:59;7.10;99.90
51619;DHT22;38518;53.164;5.430;2022-12-20T05:29:24;8.20;99.90
51619;DHT22;38518;53.164;5.430;2022-12-20T05:31:51;8.30;99.90
51619;DHT22;38518;53.164;5.430;2022-12-20T05:34:17;7.90;99.90
51619;DHT22;38518;53.164;5.430;2022-12-20T05:36:42;8.40;99.90
51619;DHT22;38518;53.164;5.430;2022-12-20T05:39:08;8.20;99.90
51619;DHT22;38518;53.164;5.430;2022-12-20T05:41:36;8.00;99.90
51619;DHT22;38518;53.164;5.430;2022-12-20T05:44:03;8.00;99.90
51619;DHT22;38518;53.164;5.430;2022-12-20T05:46:29;6.80;99.90
51619;DHT22;38518;53.164;5.430;2022-12-20T05:48:54;8.00;99.90
51619;DHT22;38518;53.164;5.430;2022-12-20T05:51:20;8.00;99.90
51619;DHT22;38518;53.164;5.430;2022-12-20T05:53:46;8.10;99.90
51619;DHT22;38518;53.164;5.430;2022-12-20T05:56:12;8.80;99.90
51619;DHT22;38518;53.164;5.430;2022-12-20T05:58:38;8.10;99.90
51619;DHT22;38518;53.164;5.430;2022-12-20T06:01:06;7.80;99.90
51619;DHT22;38518;53.164;5.430;2022-12-20T06:03:32;8.10;99.90
51619;DHT22;38518;53.164;5.430;2022-12-20T06:05:58;8.10;99.90
51619;DHT22;38518;53.164;5.430;2022-12-20T06:08:23;7.90;94.00
51619;DHT22;38518;53.164;5.430;2022-12-20T06:10:50;8.00;94.90
51619;DHT22;38518;53.164;5.430;2022-12-20T06:13:16;8.00;89.40
51619;DHT22;38518;53.164;5.430;2022-12-20T06:15:42;8.70;96.10
51619;DHT22;38518;53.164;5.430;2022-12-20T06:18:08;8.10;83.60
51619;DHT22;38518;53.164;5.430;2022-12-20T06:20:34;7.90;84.50
51619;DHT22;38518;53.164;5.430;2022-12-20T06:23:02;7.90;67.40
51619;DHT22;38518;53.164;5.430;2022-12-20T06:25:28;7.90;95.90
51619;DHT22;38518;53.164;5.430;2022-12-20T06:27:54;7.90;99.90
51619;DHT22;38518;53.164;5.430;2022-12-20T06:30:20;7.90;99.90
51619;DHT22;38518;53.164;5.430;2022-12-20T06:32:46;8.10;99.90
51619;DHT22;38518;53.164;5.430;2022-12-20T06:35:12;7.90;99.90
51619;DHT22;38518;53.164;5.430;2022-12-20T06:37:39;8.10;99.90
51619;DHT22;38518;53.164;5.430;2022-12-20T06:40:10;7.80;99.90
51619;DHT22;38518;53.164;5.430;2022-12-20T06:42:36;7.80;99.90
51619;DHT22;38518;53.164;5.430;2022-12-20T06:45:02;8.60;99.90
51619;DHT22;38518;53.164;5.430;2022-12-20T06:47:28;8.00;99.90
51619;DHT22;38518;53.164;5.430;2022-12-20T06:49:54;8.00;99.90
51619;DHT22;38518;53.164;5.430;2022-12-20T06:52:20;8.10;99.90
51619;DHT22;38518;53.164;5.430;2022-12-20T06:54:45;8.00;99.90
51619;DHT22;38518;53.164;5.430;2022-12-20T06:57:11;8.10;99.90
51619;DHT22;38518;53.164;5.430;2022-12-20T06:59:37;8.00;1.00
51619;DHT22;38518;53.164;5.430;2022-12-20T07:02:03;7.80;1.00
51619;DHT22;38518;53.164;5.430;2022-12-20T07:04:29;7.80;1.00
51619;DHT22;38518;53.164;5.430;2022-12-20T07:06:54;7.90;1.00
51619;DHT22;38518;53.164;5.430;2022-12-20T07:09:21;7.80;1.00
51619;DHT22;38518;53.164;5.430;2022-12-20T07:11:48;7.90;1.00
51619;DHT22;38518;53.164;5.430;2022-12-20T07:14:14;8.00;1.00
51619;DHT22;38518;53.164;5.430;2022-12-20T07:16:39;7.90;1.00
51619;DHT22;38518;53.164;5.430;2022-12-20T07:19:12;7.90;1.00
51619;DHT22;38518;53.164;5.430;2022-12-20T07:21:39;7.90;1.00
51619;DHT22;38518;53.164;5.430;2022-12-20T07:24:05;7.90;1.00
51619;DHT22;38518;53.164;5.430;2022-12-20T07:26:31;7.90;1.00
51619;DHT22;38518;53.164;5.430;2022-12-20T07:28:57;8.00;1.00
51619;DHT22;38518;53.164;5.430;2022-12-20T07:31:23;8.60;1.00
51619;DHT22;38518;53.164;5.430;2022-12-20T07:33:49;8.10;1.00
51619;DHT22;38518;53.164;5.430;2022-12-20T07:36:14;8.50;1.00
51619;DHT22;38518;53.164;5.430;2022-12-20T07:38:41;8.00;1.00
51619;DHT22;38518;53.164;5.430;2022-12-20T07:41:07;7.00;1.00
51619;DHT22;38518;53.164;5.430;2022-12-20T07:43:34;8.10;1.00
51619;DHT22;38518;53.164;5.430;2022-12-20T07:46:00;8.30;1.00
51619;DHT22;38518;53.164;5.430;2022-12-20T07:48:29;8.10;1.00
51619;DHT22;38518;53.164;5.430;2022-12-20T07:51:00;8.10;1.00
51619;DHT22;38518;53.164;5.430;2022-12-20T07:53:28;8.10;1.00
51619;DHT22;38518;53.164;5.430;2022-12-20T07:55:57;8.10;1.00
51619;DHT22;38518;53.164;5.430;2022-12-20T07:58:24;9.00;1.00
51619;DHT22;38518;53.164;5.430;2022-12-20T08:00:51;8.40;1.00
51619;DHT22;38518;53.164;5.430;2022-12-20T08:03:24;8.10;1.00
51619;DHT22;38518;53.164;5.430;2022-12-20T08:05:54;8.20;1.00
51619;DHT22;38518;53.164;5.430;2022-12-20T08:08:23;7.90;1.00
51619;DHT22;38518;53.164;5.430;2022-12-20T08:10:49;8.30;1.00
51619;DHT22;38518;53.164;5.430;2022-12-20T08:13:16;8.40;1.00
51619;DHT22;38518;53.164;5.430;2022-12-20T08:15:42;8.10;1.00
51619;DHT22;38518;53.164;5.430;2022-12-20T08:18:08;7.70;99.90
51619;DHT22;38518;53.164;5.430;2022-12-20T08:20:34;8.10;99.90
51619;DHT22;38518;53.164;5.430;2022-12-20T08:23:02;8.10;99.90
51619;DHT22;38518;53.164;5.430;2022-12-20T08:25:28;8.40;99.90
51619;DHT22;38518;53.164;5.430;2022-12-20T08:27:54;8.10;99.90
51619;DHT22;38518;53.164;5.430;2022-12-20T08:30:20;8.50;99.90
51619;DHT22;38518;53.164;5.430;2022-12-20T08:32:48;8.20;99.90
51619;DHT22;38518;53.164;5.430;2022-12-20T08:35:14;8.30;99.90
51619;DHT22;38518;53.164;5.430;2022-12-20T08:37:40;8.60;99.90
51619;DHT22;38518;53.164;5.430;2022-12-20T08:40:06;9.40;99.90
51619;DHT22;38518;53.164;5.430;2022-12-20T08:42:33;7.90;99.90
51619;DHT22;38518;53.164;5.430;2022-12-20T08:44:59;8.60;99.90
51619;DHT22;38518;53.164;5.430;2022-12-20T08:47:24;8.40;99.90
51619;DHT22;38518;53.164;5.430;2022-12-20T08:49:51;8.60;19.40
51619;DHT22;38518;53.164;5.430;2022-12-20T08:52:17;7.40;37.70
51619;DHT22;38518;53.164;5.430;2022-12-20T08:54:43;8.50;1.00
51619;DHT22;38518;53.164;5.430;2022-12-20T08:57:08;8.80;1.00
51619;DHT22;38518;53.164;5.430;2022-12-20T08:59:34;8.80;1.00
51619;DHT22;38518;53.164;5.430;2022-12-20T09:02:00;9.40;1.00
51619;DHT22;38518;53.164;5.430;2022-12-20T09:04:26;8.40;1.00
51619;DHT22;38518;53.164;5.430;2022-12-20T09:06:51;8.90;1.00
51619;DHT22;38518;53.164;5.430;2022-12-20T09:09:19;8.80;1.00
51619;DHT22;38518;53.164;5.430;2022-12-20T09:11:44;8.80;99.90
51619;DHT22;38518;53.164;5.430;2022-12-20T09:14:10;8.80;99.90
51619;DHT22;38518;53.164;5.430;2022-12-20T09:16:36;8.80;99.90
51619;DHT22;38518;53.164;5.430;2022-12-20T09:19:03;8.80;99.90
51619;DHT22;38518;53.164;5.430;2022-12-20T09:21:29;9.70;99.90
51619;DHT22;38518;53.164;5.430;2022-12-20T09:23:56;8.80;99.90
51619;DHT22;38518;53.164;5.430;2022-12-20T09:26:22;8.70;99.90
51619;DHT22;38518;53.164;5.430;2022-12-20T09:28:49;8.70;99.90
51619;DHT22;38518;53.164;5.430;2022-12-20T09:31:18;8.90;99.90
51619;DHT22;38518;53.164;5.430;2022-12-20T09:33:45;8.90;99.90
51619;DHT22;38518;53.164;5.430;2022-12-20T09:36:12;8.80;99.90
51619;DHT22;38518;53.164;5.430;2022-12-20T09:38:38;8.70;99.90
51619;DHT22;38518;53.164;5.430;2022-12-20T09:41:06;9.00;99.90
51619;DHT22;38518;53.164;5.430;2022-12-20T09:43:33;8.70;99.90
51619;DHT22;38518;53.164;5.430;2022-12-20T09:46:01;8.80;99.90
51619;DHT22;38518;53.164;5.430;2022-12-20T09:48:37;8.70;99.90
51619;DHT22;38518;53.164;5.430;2022-12-20T09:54:01;9.30;99.90
51619;DHT22;38518;53.164;5.430;2022-12-20T09:56:36;10.20;99.90
51619;DHT22;38518;53.164;5.430;2022-12-20T10:01:34;8.60;99.90
51619;DHT22;38518;53.164;5.430;2022-12-20T10:04:28;8.60;99.90
51619;DHT22;38518;53.164;5.430;2022-12-20T10:18:14;8.50;99.90
51619;DHT22;38518;53.164;5.430;2022-12-20T10:25:50;8.40;99.90
51619;DHT22;38518;53.164;5.430;2022-12-20T10:28:19;8.30;99.90
51619;DHT22;38518;53.164;5.430;2022-12-20T10:30:49;8.40;1.00
51619;DHT22;38518;53.164;5.430;2022-12-20T10:33:23;6.60;1.00
51619;DHT22;38518;53.164;5.430;2022-12-20T10:35:51;8.40;1.00
51619;DHT22;38518;53.164;5.430;2022-12-20T10:38:18;8.30;1.00
51619;DHT22;38518;53.164;5.430;2022-12-20T10:41:00;8.30;1.00
51619;DHT22;38518;53.164;5.430;2022-12-20T10:43:27;8.50;1.00
51619;DHT22;38518;53.164;5.430;2022-12-20T10:46:07;8.30;1.00
51619;DHT22;38518;53.164;5.430;2022-12-20T10:48:33;8.60;1.00
51619;DHT22;38518;53.164;5.430;2022-12-20T10:53:33;9.20;1.00
51619;DHT22;38518;53.164;5.430;2022-12-20T10:56:14;8.10;1.00
51619;DHT22;38518;53.164;5.430;2022-12-20T10:58:42;8.20;1.00
51619;DHT22;38518;53.164;5.430;2022-12-20T11:01:14;8.20;1.00
51619;DHT22;38518;53.164;5.430;2022-12-20T11:03:50;8.20;1.00
51619;DHT22;38518;53.164;5.430;2022-12-20T11:06:18;8.20;1.00
51619;DHT22;38518;53.164;5.430;2022-12-20T11:08:44;8.30;1.00
51619;DHT22;38518;53.164;5.430;2022-12-20T11:11:22;8.50;1.00
51619;DHT22;38518;53.164;5.430;2022-12-20T11:13:50;8.20;1.00
51619;DHT22;38518;53.164;5.430;2022-12-20T11:16:35;8.20;1.00
51619;DHT22;38518;53.164;5.430;2022-12-20T11:19:12;8.50;1.00
51619;DHT22;38518;53.164;5.430;2022-12-20T11:21:58;8.20;1.00
51619;DHT22;38518;53.164;5.430;2022-12-20T11:25:19;8.20;1.00
51619;DHT22;38518;53.164;5.430;2022-12-20T11:30:07;8.20;1.00
51619;DHT22;38518;53.164;5.430;2022-12-20T11:52:16;8.30;99.90
51619;DHT22;38518;53.164;5.430;2022-12-20T11:57:42;8.30;99.90
51619;DHT22;38518;53.164;5.430;2022-12-20T12:00:13;8.20;99.90
51619;DHT22;38518;53.164;5.430;2022-12-20T12:03:33;8.30;99.90
51619;DHT22;38518;53.164;5.430;2022-12-20T12:05:46;8.30;99.90
51619;DHT22;38518;53.164;5.430;2022-12-20T12:11:24;8.10;99.90
51619;DHT22;38518;53.164;5.430;2022-12-20T12:13:52;8.30;99.90
51619;DHT22;38518;53.164;5.430;2022-12-20T12:16:33;8.50;99.90
51619;DHT22;38518;53.164;5.430;2022-12-20T12:19:02;8.30;99.90
51619;DHT22;38518;53.164;5.430;2022-12-20T12:21:34;8.30;99.90
51619;DHT22;38518;53.164;5.430;2022-12-20T12:24:12;7.80;99.90
51619;DHT22;38518;53.164;5.430;2022-12-20T12:26:45;8.40;99.90
51619;DHT22;38518;53.164;5.430;2022-12-20T12:29:14;8.40;99.90
51619;DHT22;38518;53.164;5.430;2022-12-20T12:31:45;8.40;99.90
51619;DHT22;38518;53.164;5.430;2022-12-20T12:45:28;8.60;1.00
51619;DHT22;38518;53.164;5.430;2022-12-20T12:48:12;8.50;1.00
51619;DHT22;38518;53.164;5.430;2022-12-20T12:50:43;8.40;1.00
51619;DHT22;38518;53.164;5.430;2022-12-20T12:55:57;8.50;1.00
51619;DHT22;38518;53.164;5.430;2022-12-20T13:00:52;8.60;1.00
51619;DHT22;38518;53.164;5.430;2022-12-20T13:11:37;8.50;1.00
51619;DHT22;38518;53.164;5.430;2022-12-20T13:19:50;8.20;1.00
51619;DHT22;38518;53.164;5.430;2022-12-20T13:22:22;8.30;1.00
51619;DHT22;38518;53.164;5.430;2022-12-20T13:24:57;8.20;1.00
51619;DHT22;38518;53.164;5.430;2022-12-20T13:37:59;8.10;1.00
51619;DHT22;38518;53.164;5.430;2022-12-20T13:43:34;8.30;1.00
51619;DHT22;38518;53.164;5.430;2022-12-20T13:46:13;8.10;1.00
51619;DHT22;38518;53.164;5.430;2022-12-20T13:51:17;8.20;1.00
51619;DHT22;38518;53.164;5.430;2022-12-20T13:54:01;8.00;1.00
51619;DHT22;38518;53.164;5.430;2022-12-20T13:59:02;7.80;1.00
51619;DHT22;38518;53.164;5.430;2022-12-20T14:01:29;7.80;1.00
51619;DHT22;38518;53.164;5.430;2022-12-20T14:03:56;7.90;1.00
51619;DHT22;38518;53.164;5.430;2022-12-20T14:06:23;7.70;1.00
51619;DHT22;38518;53.164;5.430;2022-12-20T14:08:51;7.70;1.00
51619;DHT22;38518;53.164;5.430;2022-12-20T14:11:22;7.70;1.00
51619;DHT22;38518;53.164;5.430;2022-12-20T14:14:02;8.70;1.00
51619;DHT22;38518;53.164;5.430;2022-12-20T14:16:30;8.60;1.00
51619;DHT22;38518;53.164;5.430;2022-12-20T14:19:00;7.70;1.00
51619;DHT22;38518;53.164;5.430;2022-12-20T14:21:28;7.80;1.00
51619;DHT22;38518;53.164;5.430;2022-12-20T14:23:56;7.80;1.00
51619;DHT22;38518;53.164;5.430;2022-12-20T14:26:29;7.90;1.00
51619;DHT22;38518;53.164;5.430;2022-12-20T14:28:57;8.10;1.00
51619;DHT22;38518;53.164;5.430;2022-12-20T14:31:37;7.90;1.00
51619;DHT22;38518;53.164;5.430;2022-12-20T14:36:34;7.80;1.00
51619;DHT22;38518;53.164;5.430;2022-12-20T14:39:00;7.90;1.00
51619;DHT22;38518;53.164;5.430;2022-12-20T14:41:37;8.10;1.00
51619;DHT22;38518;53.164;5.430;2022-12-20T14:44:15;8.00;1.00
51619;DHT22;38518;53.164;5.430;2022-12-20T14:46:50;7.70;1.00
51619;DHT22;38518;53.164;5.430;2022-12-20T14:49:31;7.70;1.00
51619;DHT22;38518;53.164;5.430;2022-12-20T14:52:23;6.20;1.00
51619;DHT22;38518;53.164;5.430;2022-12-20T15:13:39;7.40;1.00
51619;DHT22;38518;53.164;5.430;2022-12-20T15:16:17;7.30;1.00
51619;DHT22;38518;53.164;5.430;2022-12-20T15:18:45;7.30;1.00
51619;DHT22;38518;53.164;5.430;2022-12-20T15:21:13;7.30;1.00
51619;DHT22;38518;53.164;5.430;2022-12-20T15:23:48;7.20;1.00
51619;DHT22;38518;53.164;5.430;2022-12-20T15:26:17;7.10;99.90
51619;DHT22;38518;53.164;5.430;2022-12-20T15:28:46;7.10;1.00
51619;DHT22;38518;53.164;5.430;2022-12-20T15:31:13;7.10;1.00
51619;DHT22;38518;53.164;5.430;2022-12-20T15:33:41;8.10;1.00
51619;DHT22;38518;53.164;5.430;2022-12-20T15:36:19;7.20;1.00
51619;DHT22;38518;53.164;5.430;2022-12-20T15:38:45;7.10;1.00
51619;DHT22;38518;53.164;5.430;2022-12-20T15:41:29;7.00;1.00
51619;DHT22;38518;53.164;5.430;2022-12-20T15:44:16;6.90;1.00
51619;DHT22;38518;53.164;5.430;2022-12-20T15:46:43;7.00;1.00
51619;DHT22;38518;53.164;5.430;2022-12-20T15:49:18;7.10;1.00
51619;DHT22;38518;53.164;5.430;2022-12-20T15:51:47;7.10;1.00
51619;DHT22;38518;53.164;5.430;2022-12-20T15:54:34;7.00;1.00
51619;DHT22;38518;53.164;5.430;2022-12-20T15:57:03;7.00;1.00
51619;DHT22;38518;53.164;5.430;2022-12-20T15:59:29;7.30;1.00
51619;DHT22;38518;53.164;5.430;2022-12-20T16:01:55;7.00;1.00
51619;DHT22;38518;53.164;5.430;2022-12-20T16:04:21;7.30;1.00
51619;DHT22;38518;53.164;5.430;2022-12-20T16:06:49;7.10;1.00
51619;DHT22;38518;53.164;5.430;2022-12-20T16:09:15;7.20;1.00
51619;DHT22;38518;53.164;5.430;2022-12-20T16:11:41;7.40;1.00
51619;DHT22;38518;53.164;5.430;2022-12-20T16:14:18;7.20;1.00
51619;DHT22;38518;53.164;5.430;2022-12-20T16:16:48;7.30;1.00
51619;DHT22;38518;53.164;5.430;2022-12-20T16:19:15;7.30;1.00
51619;DHT22;38518;53.164;5.430;2022-12-20T16:21:47;7.30;1.00
51619;DHT22;38518;53.164;5.430;2022-12-20T16:24:16;7.30;1.00
51619;DHT22;38518;53.164;5.430;2022-12-20T16:26:43;7.30;1.00
51619;DHT22;38518;53.164;5.430;2022-12-20T16:29:09;7.30;1.00
51619;DHT22;38518;53.164;5.430;2022-12-20T16:31:36;7.40;1.00
51619;DHT22;38518;53.164;5.430;2022-12-20T16:34:06;7.20;1.00
51619;DHT22;38518;53.164;5.430;2022-12-20T16:36:32;7.10;1.00
51619;DHT22;38518;53.164;5.430;2022-12-20T16:38:58;7.20;1.00
51619;DHT22;38518;53.164;5.430;2022-12-20T16:41:26;7.00;1.00
51619;DHT22;38518;53.164;5.430;2022-12-20T16:43:53;7.10;1.00
51619;DHT22;38518;53.164;5.430;2022-12-20T16:46:21;7.10;1.00
51619;DHT22;38518;53.164;5.430;2022-12-20T16:48:48;7.20;1.00
51619;DHT22;38518;53.164;5.430;2022-12-20T16:54:00;7.10;1.00
51619;DHT22;38518;53.164;5.430;2022-12-20T16:56:27;7.10;1.00
51619;DHT22;38518;53.164;5.430;2022-12-20T16:58:53;7.00;1.00
51619;DHT22;38518;53.164;5.430;2022-12-20T17:01:21;7.20;1.00
51619;DHT22;38518;53.164;5.430;2022-12-20T17:03:49;7.00;1.00
51619;DHT22;38518;53.164;5.430;2022-12-20T17:06:15;7.00;1.00
51619;DHT22;38518;53.164;5.430;2022-12-20T17:08:43;7.00;1.00
51619;DHT22;38518;53.164;5.430;2022-12-20T17:11:24;7.00;1.00
51619;DHT22;38518;53.164;5.430;2022-12-20T17:13:51;6.90;1.00
51619;DHT22;38518;53.164;5.430;2022-12-20T17:16:18;7.00;1.00
51619;DHT22;38518;53.164;5.430;2022-12-20T17:18:45;6.90;1.00
51619;DHT22;38518;53.164;5.430;2022-12-20T17:21:19;6.80;1.00
51619;DHT22;38518;53.164;5.430;2022-12-20T17:23:47;6.90;1.00
51619;DHT22;38518;53.164;5.430;2022-12-20T17:26:32;6.90;1.00
51619;DHT22;38518;53.164;5.430;2022-12-20T17:28:58;5.80;1.00
51619;DHT22;38518;53.164;5.430;2022-12-20T17:31:28;6.80;1.00
51619;DHT22;38518;53.164;5.430;2022-12-20T17:33:57;6.70;1.00
51619;DHT22;38518;53.164;5.430;2022-12-20T17:36:23;6.70;1.00
51619;DHT22;38518;53.164;5.430;2022-12-20T17:38:49;6.90;1.00
51619;DHT22;38518;53.164;5.430;2022-12-20T17:41:31;6.90;1.00
51619;DHT22;38518;53.164;5.430;2022-12-20T17:43:59;6.70;1.00
51619;DHT22;38518;53.164;5.430;2022-12-20T17:46:25;6.60;1.00
51619;DHT22;38518;53.164;5.430;2022-12-20T17:48:52;6.60;1.00
51619;DHT22;38518;53.164;5.430;2022-12-20T17:51:23;6.60;1.00
51619;DHT22;38518;53.164;5.430;2022-12-20T17:53:53;6.70;1.00
51619;DHT22;38518;53.164;5.430;2022-12-20T17:56:23;6.50;1.00
51619;DHT22;38518;53.164;5.430;2022-12-20T17:58:50;6.40;1.00
51619;DHT22;38518;53.164;5.430;2022-12-20T18:01:23;6.40;1.00
51619;DHT22;38518;53.164;5.430;2022-12-20T18:03:50;6.40;1.00
51619;DHT22;38518;53.164;5.430;2022-12-20T18:06:17;6.30;1.00
51619;DHT22;38518;53.164;5.430;2022-12-20T18:08:48;6.40;1.00
51619;DHT22;38518;53.164;5.430;2022-12-20T18:11:14;5.20;1.00
51619;DHT22;38518;53.164;5.430;2022-12-20T18:13:46;6.40;1.00
51619;DHT22;38518;53.164;5.430;2022-12-20T18:16:14;6.40;1.00
51619;DHT22;38518;53.164;5.430;2022-12-20T18:18:41;6.40;1.00
51619;DHT22;38518;53.164;5.430;2022-12-20T18:21:09;6.40;1.00
51619;DHT22;38518;53.164;5.430;2022-12-20T18:23:36;4.90;1.00
51619;DHT22;38518;53.164;5.430;2022-12-20T18:26:12;5.20;1.00
51619;DHT22;38518;53.164;5.430;2022-12-20T18:28:39;6.40;1.00
51619;DHT22;38518;53.164;5.430;2022-12-20T18:31:06;5.20;1.00
51619;DHT22;38518;53.164;5.430;2022-12-20T18:33:32;6.40;1.00